X  Close Metar Aviation Weather Data     NZAA Auckland International Airport
Temperature
18°C Temperature
17°C Dewpoint
94% Humidity



Wind
8 KM/H
5 MPH
2 M/S
4 KTS



250°
WSW
Current Conditions

Light Rain, Mist Light Rain, Mist
Pressure 1011.92 (hPa) - 29.88 (inHg)
Visibility 2.5 (mile) - 4 (km)
Airport
Airport-code NZAA

Location: Auckland International Airport
Distance: 130 (km)

Metar:
NZAA 271630Z AUTO 25004KT 4200 -RA BR FEW008/// OVC016/// 18/17 Q1012 BECMG 9999 TEMPO 7000 RADZ BKN012

Time: 28-01-2021 05:30 NZDT